Time;durP1;ratioP1;P1;durP2;ratioP2;P2;SDS_P1;SDS_P2;PMS_P1;PMS_P2;Temp;Humidity;BMP_temperature;BMP_pressure;BME280_temperature;BME280_humidity;BME280_pressure;Samples;Min_cycle;Max_cycle;Signal;HPM_P1;HPM_P2
2022/01/30 00:08:17;;;;;;;5.18;2.80;;;;;;;20.55;43.72;100327.66;20518569;28;101487;-64
2022/01/30 00:18:38;;;;;;;4.82;3.20;;;;;;;20.51;44.34;100302.53;20524420;28;100012;-63
2022/01/30 00:28:40;;;;;;;4.40;2.88;;;;;;;20.49;44.14;100254.47;20527222;28;100069;-64
2022/01/30 00:38:41;;;;;;;4.63;2.75;;;;;;;20.46;44.11;100237.13;20511536;28;98261;-62
2022/01/30 00:48:47;;;;;;;4.63;2.80;;;;;;;20.47;43.86;100220.41;20532898;28;101458;-63
2022/01/30 00:58:55;;;;;;;3.03;2.60;;;;;;;20.42;44.15;100195.41;20524612;28;98420;-64
2022/01/30 01:09:00;;;;;;;3.30;2.40;;;;;;;20.39;44.09;100171.97;20532927;28;99743;-64
2022/01/30 01:29:30;;;;;;;3.13;2.20;;;;;;;20.34;44.08;100153.09;20523956;28;98925;-64
2022/01/30 01:39:31;;;;;;;3.92;2.55;;;;;;;20.30;44.24;100132.28;20527027;28;99326;-64
2022/01/30 01:49:33;;;;;;;3.00;2.22;;;;;;;20.29;44.34;100117.47;20532431;28;100845;-64
2022/01/30 01:59:33;;;;;;;2.90;2.17;;;;;;;20.29;43.83;100091.16;20520353;28;99789;-63
2022/01/30 02:09:42;;;;;;;3.00;2.47;;;;;;;20.29;44.05;100077.19;20528922;28;104205;-63
2022/01/30 02:30:16;;;;;;;2.78;2.22;;;;;;;20.26;43.91;100036.22;20540563;28;99252;-63
2022/01/30 02:40:17;;;;;;;3.45;2.03;;;;;;;20.25;43.71;100004.75;20514349;28;103050;-63
2022/01/30 02:50:37;;;;;;;3.25;2.17;;;;;;;20.25;43.81;100015.28;20516713;28;100682;-63
2022/01/30 03:00:39;;;;;;;3.63;2.17;;;;;;;20.23;44.03;100004.91;20535843;28;101406;-63
2022/01/30 03:10:41;;;;;;;2.70;2.03;;;;;;;20.21;43.96;100000.72;20525239;28;99250;-63
2022/01/30 03:20:42;;;;;;;3.53;1.95;;;;;;;20.22;43.84;99994.50;20524535;28;99010;-63
2022/01/30 03:30:42;;;;;;;2.80;1.98;;;;;;;20.21;43.91;99956.03;20533125;28;102817;-63
2022/01/30 03:40:43;;;;;;;4.55;1.92;;;;;;;20.18;44.05;99920.31;20524905;28;98641;-63
2022/01/30 03:50:45;;;;;;;3.65;1.92;;;;;;;20.18;44.17;99909.78;20514103;28;102051;-63
2022/01/30 04:00:46;;;;;;;3.47;1.70;;;;;;;20.18;43.96;99907.16;20512717;28;98970;-63
2022/01/30 04:10:48;;;;;;;2.50;1.70;;;;;;;20.18;44.01;99888.75;20514088;28;104983;-63
2022/01/30 04:20:50;;;;;;;2.67;1.77;;;;;;;20.16;44.16;99888.03;20533102;28;97940;-62
2022/01/30 04:30:58;;;;;;;2.25;1.60;;;;;;;20.17;44.09;99883.63;20514620;28;97866;-62
2022/01/30 05:11:42;;;;;;;2.53;1.63;;;;;;;20.15;44.10;99846.94;20477934;28;98304;-63
2022/01/30 05:21:43;;;;;;;2.05;1.30;;;;;;;20.26;43.39;99849.53;20489245;28;101402;-63
2022/01/30 05:31:43;;;;;;;2.35;1.10;;;;;;;20.37;42.87;99866.22;20453940;28;98223;-64
2022/01/30 05:41:44;;;;;;;4.57;1.33;;;;;;;20.45;44.16;99867.25;20460801;28;100082;-61
2022/01/30 05:51:54;;;;;;;1.52;1.40;;;;;;;20.53;43.94;99882.41;20487473;28;100717;-62
2022/01/30 06:02:02;;;;;;;2.25;1.02;;;;;;;20.60;44.02;99880.94;20478238;28;101089;-62
2022/01/30 06:12:04;;;;;;;2.72;1.20;;;;;;;20.67;44.20;99883.88;20503154;28;99274;-62
2022/01/30 06:22:04;;;;;;;1.75;1.20;;;;;;;20.73;43.88;99890.47;20507485;28;103317;-62
2022/01/30 06:32:07;;;;;;;2.05;1.10;;;;;;;20.83;43.64;99927.38;20529096;28;99841;-63
2022/01/30 06:42:13;;;;;;;1.80;1.10;;;;;;;20.90;43.98;99903.03;20496406;28;102344;-65
2022/01/30 06:52:20;;;;;;;2.65;0.90;;;;;;;21.00;44.29;99911.00;20473111;28;97924;-63
2022/01/30 07:02:30;;;;;;;4.72;1.55;;;;;;;21.13;44.62;99910.81;20514065;28;101351;-64
2022/01/30 07:12:31;;;;;;;45.75;8.82;;;;;;;21.23;45.46;99893.25;20499938;28;99022;-64
2022/01/30 07:22:31;;;;;;;29.35;7.40;;;;;;;21.33;44.67;99868.78;20538913;28;99012;-63
2022/01/30 07:32:38;;;;;;;20.77;6.82;;;;;;;21.36;45.02;99873.75;20480554;28;99180;-64
2022/01/30 07:42:39;;;;;;;24.42;5.55;;;;;;;21.39;44.16;99866.44;20535882;28;97787;-64
2022/01/30 07:52:45;;;;;;;18.80;5.35;;;;;;;21.46;44.00;99881.69;20535562;28;99857;-64
2022/01/30 08:02:50;;;;;;;33.90;11.07;;;;;;;21.54;45.02;99909.03;20493002;28;99880;-63
2022/01/30 08:12:50;;;;;;;28.80;11.00;;;;;;;21.59;44.70;99932.41;20502336;28;102141;-64
2022/01/30 08:22:52;;;;;;;33.53;11.57;;;;;;;21.64;44.61;99945.19;20460954;28;102543;-64
2022/01/30 08:32:54;;;;;;;15.07;4.50;;;;;;;20.78;36.57;99938.28;20476267;28;100327;-64
2022/01/30 08:42:54;;;;;;;10.50;4.50;;;;;;;21.15;38.88;99935.19;20505671;28;100852;-63
2022/01/30 08:52:57;;;;;;;21.42;5.38;;;;;;;21.37;39.66;99947.41;20522593;28;99574;-62
2022/01/30 09:02:59;;;;;;;17.73;5.70;;;;;;;21.56;39.79;99937.91;20531281;28;100528;-62
2022/01/30 09:13:03;;;;;;;19.63;5.53;;;;;;;21.69;39.77;99972.81;20531348;28;99252;-62
2022/01/30 09:23:03;;;;;;;20.20;7.50;;;;;;;21.81;40.03;99954.25;20525001;28;99504;-64
2022/01/30 09:33:03;;;;;;;14.18;7.60;;;;;;;21.93;39.95;99911.00;20514600;28;98663;-63
2022/01/30 09:43:04;;;;;;;21.80;6.97;;;;;;;22.02;40.61;99926.03;20522904;28;98251;-63
2022/01/30 09:53:05;;;;;;;10.38;6.82;;;;;;;22.04;40.43;99902.97;20554278;28;101221;-62
2022/01/30 10:03:06;;;;;;;16.58;7.03;;;;;;;22.17;41.23;99934.38;20508172;28;99830;-62
2022/01/30 10:13:14;;;;;;;43.28;7.88;;;;;;;22.25;41.16;99915.22;20509252;28;102633;-62
2022/01/30 10:23:57;;;;;;;18.27;7.72;;;;;;;22.20;39.21;99957.84;20510516;28;99624;-62
2022/01/30 10:34:26;;;;;;;22.77;6.40;;;;;;;22.23;38.55;99956.72;20526215;28;100137;-62
2022/01/30 10:56:05;;;;;;;21.92;5.55;;;;;;;22.44;40.77;99927.63;20534247;28;97632;-64
2022/01/30 11:17:51;;;;;;;12.27;4.95;;;;;;;22.58;40.89;99925.53;20521185;28;99317;-64
2022/01/30 11:28:05;;;;;;;18.70;4.97;;;;;;;22.55;40.00;99916.09;20533176;28;100411;-62
2022/01/30 12:00:36;;;;;;;17.15;6.25;;;;;;;22.87;48.40;99933.44;20543711;28;101787;-62
2022/01/30 12:10:43;;;;;;;17.80;5.72;;;;;;;22.89;47.34;99949.13;20485459;28;98896;-62
2022/01/30 12:42:42;;;;;;;15.20;5.25;;;;;;;22.77;41.48;99977.50;20529412;28;105718;-63
2022/01/30 12:53:09;;;;;;;11.57;4.53;;;;;;;22.69;41.27;99947.34;20521096;28;98818;-63
2022/01/30 13:03:43;;;;;;;6.55;4.30;;;;;;;22.69;41.66;99918.31;20497522;28;99082;-63
2022/01/30 13:13:57;;;;;;;11.90;3.95;;;;;;;22.65;40.81;99974.16;20538371;28;99622;-63
2022/01/30 13:24:45;;;;;;;8.10;3.53;;;;;;;22.56;41.55;99983.75;20528570;28;100612;-62
2022/01/30 13:35:12;;;;;;;6.97;3.15;;;;;;;22.52;41.64;99987.59;20518074;28;100411;-62
2022/01/30 13:56:15;;;;;;;6.97;3.28;;;;;;;22.42;41.97;99984.94;20531946;28;102123;-63
2022/01/30 14:17:40;;;;;;;7.95;3.20;;;;;;;22.33;43.08;99978.66;20511215;28;100988;-63
2022/01/30 14:27:49;;;;;;;7.43;3.47;;;;;;;22.29;42.61;100002.81;20495328;28;97874;-63
2022/01/30 15:00:17;;;;;;;9.60;2.70;;;;;;;22.22;42.85;99987.53;20535041;28;99887;-63
2022/01/30 15:10:41;;;;;;;8.57;2.65;;;;;;;22.20;43.05;99978.09;20523190;28;99055;-62
2022/01/30 15:32:23;;;;;;;5.68;2.42;;;;;;;22.18;42.99;99958.91;20485538;28;99895;-63
2022/01/30 15:43:03;;;;;;;7.22;2.45;;;;;;;22.16;42.67;99958.25;20536306;28;99681;-63
2022/01/30 15:53:12;;;;;;;4.38;2.10;;;;;;;22.12;42.12;99962.09;20514683;28;101536;-62
2022/01/30 16:03:12;;;;;;;6.53;2.88;;;;;;;22.07;41.73;99978.34;20480460;28;101051;-64
2022/01/30 16:23:32;;;;;;;9.50;3.58;;;;;;;22.00;41.58;99988.59;20516488;28;100180;-64
2022/01/30 16:33:33;;;;;;;5.18;3.00;;;;;;;22.00;41.88;100038.69;20525651;28;102727;-64
2022/01/30 16:43:50;;;;;;;4.60;2.75;;;;;;;22.02;42.74;100057.00;20521627;28;102450;-64
2022/01/30 16:53:51;;;;;;;15.68;3.45;;;;;;;22.06;43.23;100082.13;20516807;28;98943;-64
2022/01/30 17:03:51;;;;;;;7.30;3.58;;;;;;;22.11;43.24;100098.41;20521645;28;102139;-64
2022/01/30 17:13:51;;;;;;;11.27;5.38;;;;;;;22.17;43.17;100103.13;20520969;28;99549;-63
2022/01/30 17:23:52;;;;;;;9.15;5.13;;;;;;;22.19;43.36;100103.84;20531755;28;98831;-64
2022/01/30 17:44:49;;;;;;;10.25;4.93;;;;;;;22.24;42.88;100127.19;20516693;28;102763;-63
2022/01/30 17:54:50;;;;;;;11.35;4.95;;;;;;;22.25;42.89;100118.28;20488572;28;100454;-63
2022/01/30 18:04:51;;;;;;;6.85;4.68;;;;;;;22.28;42.95;100111.94;20434613;28;100888;-64
2022/01/30 18:14:52;;;;;;;6.93;4.70;;;;;;;22.29;42.68;100119.72;20434631;28;103261;-64
2022/01/30 18:24:52;;;;;;;7.28;4.13;;;;;;;22.31;42.72;100153.88;20479948;28;102102;-64
2022/01/30 18:34:54;;;;;;;33.22;11.10;;;;;;;22.32;42.62;100143.16;20462481;28;102000;-63
2022/01/30 18:44:56;;;;;;;27.00;11.93;;;;;;;22.31;42.72;100149.41;20540506;28;99644;-63
2022/01/30 18:54:56;;;;;;;28.10;10.40;;;;;;;22.32;43.25;100124.72;20524133;28;101837;-64
2022/01/30 19:04:56;;;;;;;21.23;9.45;;;;;;;22.33;43.66;100130.84;20485819;28;103325;-62
2022/01/30 19:14:57;;;;;;;17.98;8.77;;;;;;;22.32;44.26;100142.34;20496074;28;98770;-63
2022/01/30 19:25:48;;;;;;;16.13;8.25;;;;;;;22.32;44.65;100147.63;20528375;28;97775;-63
2022/01/30 19:46:54;;;;;;;15.20;7.97;;;;;;;22.29;44.09;100182.16;20532614;28;97639;-63
2022/01/30 19:56:55;;;;;;;15.27;7.30;;;;;;;22.23;44.12;100196.72;20530759;28;99293;-62
2022/01/30 20:07:33;;;;;;;13.63;3.75;;;;;;;21.54;31.67;100217.28;20465240;28;101968;-62
2022/01/30 20:17:47;;;;;;;12.35;4.97;;;;;;;21.70;38.73;100214.28;20490276;28;98883;-62
2022/01/30 20:28:28;;;;;;;11.45;4.40;;;;;;;21.71;40.07;100218.56;20513661;28;101627;-62
2022/01/30 20:38:53;;;;;;;13.20;4.20;;;;;;;21.67;40.93;100198.72;20489106;28;101909;-62
2022/01/30 20:59:51;;;;;;;10.40;4.22;;;;;;;21.56;41.39;100210.13;20511577;28;100565;-62
2022/01/30 21:10:46;;;;;;;9.27;4.13;;;;;;;21.52;41.97;100198.16;20515519;28;100833;-62
2022/01/30 21:20:53;;;;;;;8.00;3.53;;;;;;;21.50;41.90;100186.88;20511983;28;98085;-62
2022/01/30 21:30:56;;;;;;;7.15;3.42;;;;;;;21.44;41.78;100184.75;20566973;28;99264;-62
2022/01/30 21:41:26;;;;;;;5.77;3.20;;;;;;;21.42;42.42;100181.41;20518736;28;97526;-63
2022/01/30 21:51:58;;;;;;;6.55;3.40;;;;;;;21.36;42.52;100166.97;20493515;28;98044;-62
2022/01/30 22:02:23;;;;;;;5.40;2.93;;;;;;;21.32;42.53;100162.06;20541730;28;97948;-62
2022/01/30 22:13:07;;;;;;;7.45;3.50;;;;;;;21.29;42.82;100168.41;20467080;28;100768;-62
2022/01/30 22:23:32;;;;;;;4.30;2.63;;;;;;;21.24;43.08;100168.78;20476356;28;102712;-62
2022/01/30 22:34:00;;;;;;;4.60;2.70;;;;;;;21.20;42.97;100156.00;20474072;28;97554;-62
2022/01/30 22:44:29;;;;;;;4.90;2.63;;;;;;;21.16;43.33;100165.09;20458700;28;101149;-62
2022/01/30 22:54:41;;;;;;;4.97;2.50;;;;;;;21.14;43.19;100161.75;20508883;28;98590;-62
2022/01/30 23:05:06;;;;;;;4.72;2.30;;;;;;;21.08;42.95;100129.69;20514352;28;98954;-62
2022/01/30 23:15:33;;;;;;;4.35;2.22;;;;;;;21.04;43.18;100120.38;20547070;28;98954;-62
2022/01/30 23:25:33;;;;;;;4.07;2.08;;;;;;;21.02;43.18;100166.19;20527801;28;99025;-62
2022/01/30 23:36:14;;;;;;;3.80;2.35;;;;;;;20.98;43.76;100170.06;20492946;28;97698;-62
2022/01/30 23:57:32;;;;;;;3.17;1.88;;;;;;;20.92;44.52;100197.69;20523522;28;97551;-63
